Time;durP1;ratioP1;P1;durP2;ratioP2;P2;SDS_P1;SDS_P2;PMS_P1;PMS_P2;Temp;Humidity;BMP_temperature;BMP_pressure;BME280_temperature;BME280_humidity;BME280_pressure;Samples;Min_cycle;Max_cycle;Signal;HPM_P1;HPM_P2
2024/03/18 00:02:21;0.00;0.00;0.62;0.00;0.00;0.62;2.20;1.37;;;22.70;20.70;;;;;;2262546;61;20360;-66
2024/03/18 00:04:48;0.00;0.00;0.62;0.00;0.00;0.62;2.73;1.60;;;22.70;20.70;;;;;;2262881;61;20357;-66
2024/03/18 00:07:14;0.00;0.00;0.62;0.00;0.00;0.62;5.43;1.43;;;22.70;20.70;;;;;;2263116;61;20727;-66
2024/03/18 00:09:41;0.00;0.00;0.62;0.00;0.00;0.62;3.80;1.33;;;22.70;20.70;;;;;;2262958;61;20353;-66
2024/03/18 00:12:08;0.00;0.00;0.62;0.00;0.00;0.62;4.00;1.20;;;22.70;20.70;;;;;;2262567;61;20363;-66
2024/03/18 00:14:35;0.00;0.00;0.62;0.00;0.00;0.62;3.67;1.90;;;22.70;20.70;;;;;;2263042;61;20447;-66
2024/03/18 00:17:01;0.00;0.00;0.62;0.00;0.00;0.62;4.13;1.47;;;22.70;20.70;;;;;;2262976;61;20407;-64
2024/03/18 00:19:27;0.00;0.00;0.62;0.00;0.00;0.62;2.63;1.43;;;22.60;20.60;;;;;;2258670;61;20741;-66
2024/03/18 00:21:54;0.00;0.00;0.62;0.00;0.00;0.62;4.00;1.30;;;22.70;20.70;;;;;;2263113;61;20849;-65
2024/03/18 00:24:20;0.00;0.00;0.62;0.00;0.00;0.62;5.23;1.60;;;22.70;20.70;;;;;;2262918;61;20353;-64
2024/03/18 00:26:48;0.00;0.00;0.62;0.00;0.00;0.62;3.90;1.63;;;22.60;20.70;;;;;;2262623;61;20365;-64
2024/03/18 00:29:14;0.00;0.00;0.62;0.00;0.00;0.62;2.17;1.27;;;22.60;21.10;;;;;;2263387;61;20358;-64
2024/03/18 00:31:41;0.00;0.00;0.62;0.00;0.00;0.62;4.33;1.40;;;22.60;20.60;;;;;;2258929;61;20387;-64
2024/03/18 00:34:07;0.00;0.00;0.62;0.00;0.00;0.62;3.50;1.30;;;22.60;21.10;;;;;;2262369;61;20814;-64
2024/03/18 00:36:34;0.00;0.00;0.62;0.00;0.00;0.62;3.20;1.70;;;22.60;20.60;;;;;;2258619;61;20411;-64
2024/03/18 00:39:00;0.00;0.00;0.62;0.00;0.00;0.62;6.00;1.70;;;22.60;20.60;;;;;;2262787;61;20356;-64
2024/03/18 00:41:45;0.00;0.00;0.62;0.00;0.00;0.62;2.97;1.50;;;22.60;20.60;;;;;;2262559;61;20471;-64
2024/03/18 00:44:19;0.00;0.00;0.62;0.00;0.00;0.62;5.50;1.33;;;22.60;20.60;;;;;;2263033;61;21040;-64
2024/03/18 00:46:47;0.00;0.00;0.62;0.00;0.00;0.62;4.10;1.50;;;22.60;20.60;;;;;;2262583;61;20385;-64
2024/03/18 00:49:14;0.00;0.00;0.62;0.00;0.00;0.62;3.73;1.80;;;22.60;20.60;;;;;;2262512;61;20408;-64
2024/03/18 00:51:40;0.00;0.00;0.62;0.00;0.00;0.62;2.40;1.40;;;22.60;20.60;;;;;;2262839;61;20368;-64
2024/03/18 00:54:07;0.00;0.00;0.62;0.00;0.00;0.62;2.93;1.60;;;22.60;20.60;;;;;;2262675;61;20452;-64
2024/03/18 00:56:33;0.00;0.00;0.62;0.00;0.00;0.62;3.17;1.40;;;22.60;20.60;;;;;;2258493;61;20795;-64
2024/03/18 00:59:00;0.00;0.00;0.62;0.00;0.00;0.62;3.20;1.70;;;22.60;20.60;;;;;;2263007;61;20393;-64
2024/03/18 01:01:28;0.00;0.00;0.62;0.00;0.00;0.62;3.43;1.40;;;22.60;20.60;;;;;;2263260;61;20357;-64
2024/03/18 01:03:55;0.00;0.00;0.62;0.00;0.00;0.62;2.23;1.33;;;22.60;20.60;;;;;;2263235;61;20353;-64
2024/03/18 01:06:21;0.00;0.00;0.62;0.00;0.00;0.62;2.40;1.40;;;22.60;20.60;;;;;;2263805;61;20483;-64
2024/03/18 01:08:48;0.00;0.00;0.62;0.00;0.00;0.62;3.97;1.57;;;22.60;20.60;;;;;;2263362;61;20794;-64
2024/03/18 01:11:14;0.00;0.00;0.62;0.00;0.00;0.62;3.73;1.57;;;22.50;20.50;;;;;;2259443;61;20372;-64
2024/03/18 01:13:40;0.00;0.00;0.62;0.00;0.00;0.62;3.00;1.47;;;22.60;20.60;;;;;;2263389;61;20396;-64
2024/03/18 01:16:10;0.00;0.00;0.62;0.00;0.00;0.62;3.87;1.50;;;22.50;21.00;;;;;;2263401;61;20380;-64
2024/03/18 01:18:37;0.00;0.00;0.62;0.00;0.00;0.62;4.20;2.03;;;22.50;20.50;;;;;;2263181;61;20399;-64
2024/03/18 01:21:04;0.00;0.00;0.62;0.00;0.00;0.62;3.43;1.70;;;22.50;20.50;;;;;;2263552;61;20455;-64
2024/03/18 01:23:30;0.00;0.00;0.62;0.00;0.00;0.62;3.10;1.60;;;22.50;20.50;;;;;;2263591;61;20448;-64
2024/03/18 01:25:57;0.00;0.00;0.62;0.00;0.00;0.62;4.23;1.90;;;22.50;20.50;;;;;;2263163;61;20391;-64
2024/03/18 01:28:23;0.00;0.00;0.62;0.00;0.00;0.62;3.03;1.70;;;22.50;20.50;;;;;;2263603;61;20352;-64
2024/03/18 01:30:49;0.00;0.00;0.62;0.00;0.00;0.62;3.20;1.50;;;22.50;20.50;;;;;;2263231;61;20802;-64
2024/03/18 01:33:16;0.00;0.00;0.62;0.00;0.00;0.62;3.83;1.30;;;22.40;20.40;;;;;;2263198;61;20395;-64
2024/03/18 01:35:44;0.00;0.00;0.62;0.00;0.00;0.62;3.17;1.23;;;22.50;20.50;;;;;;2263608;61;20420;-64
2024/03/18 01:38:11;0.00;0.00;0.62;0.00;0.00;0.62;3.63;1.83;;;22.50;20.50;;;;;;2263305;61;20449;-64
2024/03/18 01:40:37;0.00;0.00;0.62;0.00;0.00;0.62;2.50;1.60;;;22.50;20.50;;;;;;2263344;61;20353;-64
2024/03/18 01:43:03;0.00;0.00;0.62;0.00;0.00;0.62;2.17;1.50;;;22.50;20.50;;;;;;2263460;61;20341;-64
2024/03/18 01:45:30;0.00;0.00;0.62;0.00;0.00;0.62;2.53;1.30;;;22.50;20.50;;;;;;2262937;61;20365;-64
2024/03/18 01:47:56;0.00;0.00;0.62;0.00;0.00;0.62;3.03;1.70;;;22.50;20.50;;;;;;2262314;61;20833;-64
2024/03/18 01:50:22;0.00;0.00;0.62;0.00;0.00;0.62;3.20;1.40;;;22.50;20.50;;;;;;2263681;61;21013;-64
2024/03/18 01:52:50;0.00;0.00;0.62;0.00;0.00;0.62;3.30;1.50;;;22.40;20.40;;;;;;2259532;61;20356;-64
2024/03/18 01:55:17;0.00;0.00;0.62;0.00;0.00;0.62;3.30;1.57;;;22.40;20.40;;;;;;2262941;61;20430;-64
2024/03/18 01:57:46;0.00;0.00;0.62;0.00;0.00;0.62;1.90;1.00;;;22.40;20.40;;;;;;2263495;61;20781;-65
2024/03/18 02:00:23;0.00;0.00;0.62;0.00;0.00;0.62;2.43;1.27;;;22.40;20.40;;;;;;2261673;61;20364;-64
2024/03/18 02:02:49;0.00;0.00;0.62;0.00;0.00;0.62;3.40;1.80;;;22.40;20.40;;;;;;2258797;61;20879;-64
2024/03/18 02:05:15;0.00;0.00;0.62;0.00;0.00;0.62;3.90;1.70;;;22.40;20.40;;;;;;2259272;61;20366;-64
2024/03/18 02:07:42;0.00;0.00;0.62;0.00;0.00;0.62;3.20;1.70;;;22.40;20.40;;;;;;2259630;61;20357;-64
2024/03/18 02:10:10;0.00;0.00;0.62;0.00;0.00;0.62;4.43;1.77;;;22.40;20.40;;;;;;2262917;61;20364;-64
2024/03/18 02:12:36;0.00;0.00;0.62;0.00;0.00;0.62;3.80;2.07;;;22.40;20.50;;;;;;2263408;61;20361;-64
2024/03/18 02:15:04;0.00;0.00;0.62;0.00;0.00;0.62;2.87;1.60;;;22.40;20.40;;;;;;2262742;61;20369;-64
2024/03/18 02:17:30;0.00;0.00;0.62;0.00;0.00;0.62;2.77;1.10;;;22.40;20.40;;;;;;2263216;61;20349;-64
2024/03/18 02:19:56;0.00;0.00;0.62;0.00;0.00;0.62;3.10;1.60;;;22.40;20.40;;;;;;2263809;61;20443;-64
2024/03/18 02:22:24;0.00;0.00;0.62;0.00;0.00;0.62;2.70;1.20;;;22.40;20.40;;;;;;2263175;61;20619;-64
2024/03/18 02:24:50;0.00;0.00;0.62;0.00;0.00;0.62;3.27;1.77;;;22.40;20.40;;;;;;2263673;61;20377;-64
2024/03/18 02:27:16;0.00;0.00;0.62;0.00;0.00;0.62;2.90;1.90;;;22.40;20.40;;;;;;2263898;61;20388;-64
2024/03/18 02:29:42;0.00;0.00;0.62;0.00;0.00;0.62;2.80;1.40;;;22.40;20.40;;;;;;2263348;61;20365;-64
2024/03/18 02:32:08;0.00;0.00;0.62;0.00;0.00;0.62;6.27;1.60;;;22.40;20.40;;;;;;2263333;61;20410;-64
2024/03/18 02:34:35;0.00;0.00;0.62;0.00;0.00;0.62;2.53;1.50;;;22.30;20.40;;;;;;2263632;61;20364;-64
2024/03/18 02:37:02;0.00;0.00;0.62;0.00;0.00;0.62;4.17;1.80;;;22.30;20.40;;;;;;2263245;61;20478;-64
2024/03/18 02:39:30;0.00;0.00;0.62;0.00;0.00;0.62;2.73;1.67;;;22.30;20.40;;;;;;2263695;61;20448;-64
2024/03/18 02:41:56;0.00;0.00;0.62;0.00;0.00;0.62;3.30;1.70;;;22.30;20.40;;;;;;2263989;61;20361;-64
2024/03/18 02:44:23;0.00;0.00;0.62;0.00;0.00;0.62;3.20;1.70;;;22.30;20.40;;;;;;2263336;61;20405;-64
2024/03/18 02:46:50;0.00;0.00;0.62;0.00;0.00;0.62;3.90;1.73;;;22.30;20.40;;;;;;2263263;61;20460;-64
2024/03/18 02:49:16;0.00;0.00;0.62;0.00;0.00;0.62;6.13;2.57;;;22.30;20.40;;;;;;2263459;61;20738;-64
2024/03/18 02:51:43;0.00;0.00;0.62;0.00;0.00;0.62;2.40;1.50;;;22.30;20.40;;;;;;2263107;61;20353;-64
2024/03/18 02:54:09;0.00;0.00;0.62;0.00;0.00;0.62;3.07;1.70;;;22.30;20.40;;;;;;2263718;61;20364;-64
2024/03/18 02:56:37;0.00;0.00;0.62;0.00;0.00;0.62;2.80;1.20;;;22.30;20.40;;;;;;2263348;61;20786;-65
2024/03/18 02:59:03;0.00;0.00;0.62;0.00;0.00;0.62;2.73;1.40;;;22.30;20.40;;;;;;2263359;61;20446;-64
2024/03/18 03:01:29;0.00;0.00;0.62;0.00;0.00;0.62;2.73;1.90;;;22.30;20.40;;;;;;2263532;61;20346;-64
2024/03/18 03:03:57;0.00;0.00;0.62;0.00;0.00;0.62;2.60;1.43;;;22.30;20.40;;;;;;2263310;61;20354;-64
2024/03/18 03:06:23;0.00;0.00;0.62;0.00;0.00;0.62;3.67;1.83;;;22.30;20.40;;;;;;2259467;61;20414;-64
2024/03/18 03:08:50;0.00;0.00;0.62;0.00;0.00;0.62;4.80;1.57;;;22.30;20.40;;;;;;2263217;61;20760;-65
2024/03/18 03:11:16;0.00;0.00;0.62;0.00;0.00;0.62;3.90;1.70;;;22.30;20.40;;;;;;2263431;61;20358;-65
2024/03/18 03:13:43;0.00;0.00;0.62;0.00;0.00;0.62;3.97;1.70;;;22.30;20.40;;;;;;2263007;61;20357;-67
2024/03/18 03:16:10;0.00;0.00;0.62;0.00;0.00;0.62;3.50;1.43;;;22.30;20.40;;;;;;2263413;61;20381;-64
2024/03/18 03:18:36;0.00;0.00;0.62;0.00;0.00;0.62;2.70;1.70;;;22.30;20.40;;;;;;2263288;61;20878;-64
2024/03/18 03:21:06;0.00;0.00;0.62;0.00;0.00;0.62;3.83;1.43;;;22.30;20.40;;;;;;2263271;61;20375;-64
2024/03/18 03:23:33;0.00;0.00;0.62;0.00;0.00;0.62;2.63;1.63;;;22.30;20.40;;;;;;2263487;61;20353;-64
2024/03/18 03:25:59;0.00;0.00;0.62;0.00;0.00;0.62;3.13;1.93;;;22.20;20.30;;;;;;2263356;61;20442;-64
2024/03/18 03:28:26;0.00;0.00;0.62;0.00;0.00;0.62;4.20;1.60;;;22.30;20.40;;;;;;2263360;61;20357;-65
2024/03/18 03:31:02;0.00;0.00;0.62;0.00;0.00;0.62;4.70;1.53;;;22.20;20.30;;;;;;2263306;61;20767;-65
2024/03/18 03:33:28;0.00;0.00;0.62;0.00;0.00;0.62;3.77;1.57;;;22.20;20.30;;;;;;2263385;61;20361;-64
2024/03/18 03:35:57;0.00;0.00;0.62;0.00;0.00;0.62;2.70;1.43;;;22.30;20.90;;;;;;2263249;61;20388;-65
2024/03/18 03:38:23;0.00;0.00;0.62;0.00;0.00;0.62;3.90;2.00;;;22.20;20.30;;;;;;2263460;61;20364;-65
2024/03/18 03:40:52;0.00;0.00;0.62;0.00;0.00;0.62;2.83;1.40;;;22.20;20.30;;;;;;2263401;61;20353;-65
2024/03/18 03:43:19;0.00;0.00;0.62;0.00;0.00;0.62;5.10;2.40;;;22.20;20.30;;;;;;2263446;61;20471;-64
2024/03/18 03:45:54;0.00;0.00;0.62;0.00;0.00;0.62;5.57;1.63;;;22.20;20.30;;;;;;2263235;61;20380;-64
2024/03/18 03:48:22;0.00;0.00;0.62;0.00;0.00;0.62;3.30;1.47;;;22.20;20.90;;;;;;2263418;61;20360;-64
2024/03/18 03:50:49;0.00;0.00;0.62;0.00;0.00;0.62;2.17;1.50;;;22.20;20.30;;;;;;2263149;61;20361;-64
2024/03/18 03:53:15;0.00;0.00;0.62;0.00;0.00;0.62;4.23;1.60;;;22.20;20.30;;;;;;2263405;61;20444;-65
2024/03/18 03:55:41;0.00;0.00;0.62;0.00;0.00;0.62;4.23;1.23;;;22.20;20.30;;;;;;2263385;61;20381;-65
2024/03/18 03:58:07;0.00;0.00;0.62;0.00;0.00;0.62;2.90;1.70;;;22.20;20.30;;;;;;2263426;61;20352;-64
2024/03/18 04:00:34;0.00;0.00;0.62;0.00;0.00;0.62;2.93;1.40;;;22.20;20.30;;;;;;2263368;61;20470;-64
2024/03/18 04:03:00;0.00;0.00;0.62;0.00;0.00;0.62;2.73;1.33;;;22.20;20.30;;;;;;2263071;61;20361;-65
2024/03/18 04:05:28;0.00;0.00;0.62;0.00;0.00;0.62;2.67;1.40;;;22.20;20.30;;;;;;2263077;61;20468;-64
2024/03/18 04:07:54;0.00;0.00;0.62;0.00;0.00;0.62;2.87;1.83;;;22.20;20.30;;;;;;2263210;61;20372;-64
2024/03/18 04:10:20;0.00;0.00;0.62;0.00;0.00;0.62;3.10;1.53;;;22.20;20.30;;;;;;2263268;61;20772;-64
2024/03/18 04:12:46;0.00;0.00;0.62;0.00;0.00;0.62;2.93;1.50;;;22.20;20.80;;;;;;2263156;61;20858;-64
2024/03/18 04:15:13;0.00;0.00;0.62;0.00;0.00;0.62;4.10;1.83;;;22.20;20.30;;;;;;2263024;61;20369;-65
2024/03/18 04:17:39;0.00;0.00;0.62;0.00;0.00;0.62;2.63;1.30;;;22.10;20.20;;;;;;2263134;61;20772;-65
2024/03/18 04:20:18;0.00;0.00;0.62;0.00;0.00;0.62;5.30;1.50;;;22.10;20.20;;;;;;2263065;61;20368;-64
2024/03/18 04:22:47;0.00;0.00;0.62;0.00;0.00;0.62;2.90;1.47;;;22.10;20.20;;;;;;2263491;61;20353;-65
2024/03/18 04:25:13;0.00;0.00;0.62;0.00;0.00;0.62;2.60;1.23;;;22.20;20.30;;;;;;2263227;61;20365;-65
2024/03/18 04:27:41;0.00;0.00;0.62;0.00;0.00;0.62;4.40;2.40;;;22.10;20.20;;;;;;2263214;61;20764;-64
2024/03/18 04:30:12;0.00;0.00;0.62;0.00;0.00;0.62;3.30;2.03;;;22.10;20.20;;;;;;2263120;61;20448;-64
2024/03/18 04:32:40;0.00;0.00;0.62;0.00;0.00;0.62;2.83;1.63;;;22.20;20.30;;;;;;2263250;61;20357;-65
2024/03/18 04:35:07;0.00;0.00;0.62;0.00;0.00;0.62;3.83;1.40;;;22.10;20.20;;;;;;2262999;61;20631;-64
2024/03/18 04:37:45;0.00;0.00;0.62;0.00;0.00;0.62;2.87;1.87;;;22.10;20.20;;;;;;2263292;61;20361;-64
2024/03/18 04:40:13;0.00;0.00;0.62;0.00;0.00;0.62;3.40;1.63;;;22.10;20.20;;;;;;2263250;61;20750;-64
2024/03/18 04:42:40;0.00;0.00;0.62;0.00;0.00;0.62;2.40;1.57;;;22.10;20.20;;;;;;2262820;61;20376;-64
2024/03/18 04:45:08;0.00;0.00;0.62;0.00;0.00;0.62;1.90;1.23;;;22.10;20.20;;;;;;2263409;61;20352;-65
2024/03/18 04:47:36;0.00;0.00;0.62;0.00;0.00;0.62;2.57;1.40;;;22.10;20.20;;;;;;2257379;61;20361;-64
2024/03/18 04:50:03;0.00;0.00;0.62;0.00;0.00;0.62;2.13;1.30;;;22.10;20.20;;;;;;2262077;61;20814;-64
2024/03/18 04:52:29;0.00;0.00;0.62;0.00;0.00;0.62;3.83;1.40;;;22.10;20.20;;;;;;2262773;61;20397;-64
2024/03/18 04:54:56;0.00;0.00;0.62;0.00;0.00;0.62;3.73;1.80;;;22.10;20.20;;;;;;2262916;61;20349;-64
2024/03/18 04:57:23;0.00;0.00;0.62;0.00;0.00;0.62;2.37;1.50;;;22.10;20.20;;;;;;2262911;61;20880;-65
2024/03/18 04:59:49;0.00;0.00;0.62;0.00;0.00;0.62;2.90;1.90;;;22.10;20.20;;;;;;2263462;61;20867;-64
2024/03/18 05:02:16;0.00;0.00;0.62;0.00;0.00;0.62;3.13;1.60;;;22.10;20.20;;;;;;2262737;61;20349;-64
2024/03/18 05:04:42;0.00;0.00;0.62;0.00;0.00;0.62;2.20;1.13;;;22.10;20.80;;;;;;2263140;61;20353;-64
2024/03/18 05:07:08;0.00;0.00;0.62;0.00;0.00;0.62;2.70;1.50;;;22.10;20.20;;;;;;2263170;61;20426;-64
2024/03/18 05:09:34;0.00;0.00;0.62;0.00;0.00;0.62;5.23;1.43;;;22.00;20.20;;;;;;2263391;61;20361;-64
2024/03/18 05:12:00;0.00;0.00;0.62;0.00;0.00;0.62;5.50;2.00;;;22.10;20.20;;;;;;2263156;61;20360;-64
2024/03/18 05:14:28;0.00;0.00;0.62;0.00;0.00;0.62;2.03;1.37;;;22.00;20.20;;;;;;2263257;61;20372;-64
2024/03/18 05:16:54;0.00;0.00;0.62;0.00;0.00;0.62;5.20;1.97;;;22.00;20.20;;;;;;2263334;61;20387;-65
2024/03/18 05:19:20;0.00;0.00;0.62;0.00;0.00;0.62;5.77;1.93;;;22.00;20.20;;;;;;2263015;61;20448;-64
2024/03/18 05:21:47;0.00;0.00;0.62;0.00;0.00;0.62;3.80;2.00;;;22.00;20.20;;;;;;2262886;61;20885;-63
2024/03/18 05:24:13;0.00;0.00;0.62;0.00;0.00;0.62;2.93;1.80;;;22.00;20.20;;;;;;2255305;61;20359;-63
2024/03/18 05:26:39;0.00;0.00;0.62;0.00;0.00;0.62;3.93;1.43;;;22.00;20.20;;;;;;2262982;61;20402;-64
2024/03/18 05:29:06;0.00;0.00;0.62;0.00;0.00;0.62;6.10;1.67;;;22.00;20.20;;;;;;2263370;61;20361;-64
2024/03/18 05:31:33;0.00;0.00;0.62;0.00;0.00;0.62;3.23;1.40;;;22.00;20.20;;;;;;2263090;61;20382;-63
2024/03/18 05:34:01;0.00;0.00;0.62;0.00;0.00;0.62;2.67;1.70;;;22.00;20.20;;;;;;2263082;61;20371;-64
2024/03/18 05:36:27;0.00;0.00;0.62;0.00;0.00;0.62;2.13;1.30;;;22.00;20.20;;;;;;2262702;61;20384;-67
2024/03/18 05:38:53;0.00;0.00;0.62;0.00;0.00;0.62;2.27;1.30;;;22.00;20.20;;;;;;2262826;61;20349;-67
2024/03/18 05:41:20;0.00;0.00;0.62;0.00;0.00;0.62;2.47;1.40;;;22.00;20.20;;;;;;2258595;61;20353;-66
2024/03/18 05:43:46;0.00;0.00;0.62;0.00;0.00;0.62;2.67;1.70;;;22.00;20.20;;;;;;2262766;61;20360;-64
2024/03/18 05:46:12;0.00;0.00;0.62;0.00;0.00;0.62;2.87;1.77;;;22.00;20.20;;;;;;2258893;61;20365;-65
2024/03/18 05:48:40;0.00;0.00;0.62;0.00;0.00;0.62;3.80;1.67;;;22.00;20.20;;;;;;2259049;61;20415;-64
2024/03/18 05:51:06;0.00;0.00;0.62;0.00;0.00;0.62;3.07;1.47;;;22.00;20.20;;;;;;2259567;61;20360;-64
2024/03/18 05:53:32;0.00;0.00;0.62;0.00;0.00;0.62;2.60;1.47;;;22.00;20.20;;;;;;2262716;61;20895;-64
2024/03/18 05:55:58;0.00;0.00;0.62;0.00;0.00;0.62;3.97;1.90;;;22.00;20.20;;;;;;2262879;61;20466;-64
2024/03/18 05:58:24;0.00;0.00;0.62;0.00;0.00;0.62;4.03;1.77;;;21.90;20.10;;;;;;2263321;61;20403;-63
2024/03/18 06:00:51;0.00;0.00;0.62;0.00;0.00;0.62;4.17;1.77;;;22.00;20.20;;;;;;2263413;61;20748;-64
2024/03/18 06:03:17;0.00;0.00;0.62;0.00;0.00;0.62;3.60;1.83;;;22.00;20.20;;;;;;2262881;61;20955;-65
2024/03/18 06:05:44;0.00;0.00;0.62;0.00;0.00;0.62;1.80;1.20;;;22.00;20.20;;;;;;2263497;61;20421;-63
2024/03/18 06:08:10;0.00;0.00;0.62;0.00;0.00;0.62;3.10;1.60;;;22.00;20.20;;;;;;2263495;61;20946;-64
2024/03/18 06:10:37;0.00;0.00;0.62;0.00;0.00;0.62;3.30;1.30;;;22.00;20.20;;;;;;2263116;61;20353;-65
2024/03/18 06:13:03;0.00;0.00;0.62;0.00;0.00;0.62;3.00;1.30;;;21.90;20.10;;;;;;2263487;61;20353;-64
2024/03/18 06:15:29;0.00;0.00;0.62;0.00;0.00;0.62;4.17;1.80;;;21.90;20.10;;;;;;2263046;61;20388;-64
2024/03/18 06:17:55;0.00;0.00;0.62;0.00;0.00;0.62;2.90;1.60;;;21.90;20.10;;;;;;2263216;61;20349;-63
2024/03/18 06:20:22;0.00;0.00;0.62;0.00;0.00;0.62;2.77;1.63;;;21.90;20.10;;;;;;2263313;61;20365;-64
2024/03/18 06:22:50;0.00;0.00;0.62;0.00;0.00;0.62;3.83;1.80;;;21.90;20.10;;;;;;2263521;61;20361;-68
2024/03/18 06:28:01;0.00;0.00;0.62;0.00;0.00;0.62;2.90;1.70;;;21.90;20.10;;;;;;2263385;61;20389;-61
2024/03/18 06:30:27;0.00;0.00;0.62;0.00;0.00;0.62;4.40;2.03;;;21.90;20.10;;;;;;2263490;61;20365;-63
2024/03/18 06:32:53;0.00;0.00;0.62;0.00;0.00;0.62;4.20;2.60;;;21.90;20.10;;;;;;2261639;61;20361;-66
2024/03/18 06:35:19;0.00;0.00;0.62;0.00;0.00;0.62;2.87;1.80;;;21.90;20.10;;;;;;2260366;61;20378;-63
2024/03/18 06:37:46;0.00;0.00;0.62;0.00;0.00;0.62;3.40;2.00;;;21.90;20.10;;;;;;2255432;61;20354;-63
2024/03/18 06:40:14;0.00;0.00;0.62;0.00;0.00;0.62;3.70;1.80;;;21.90;20.10;;;;;;2259283;61;20346;-63
2024/03/18 06:42:40;0.00;0.00;0.62;0.00;0.00;0.62;4.10;2.03;;;21.90;20.10;;;;;;2259077;61;20429;-65
2024/03/18 06:45:08;0.00;0.00;0.62;0.00;0.00;0.62;4.47;2.23;;;21.90;20.10;;;;;;2259263;61;20388;-63
2024/03/18 06:47:34;0.00;0.00;0.62;0.00;0.00;0.62;3.13;2.17;;;21.90;20.10;;;;;;2258944;61;20428;-64
2024/03/18 06:50:00;0.00;0.00;0.62;0.00;0.00;0.62;2.23;1.57;;;21.90;20.10;;;;;;2258855;61;20361;-63
2024/03/18 06:52:27;0.00;0.00;0.62;0.00;0.00;0.62;3.37;2.17;;;21.90;20.10;;;;;;2259178;61;20347;-65
2024/03/18 06:54:54;0.00;0.00;0.62;0.00;0.00;0.62;2.83;1.80;;;21.90;20.10;;;;;;2259201;61;20356;-64
2024/03/18 06:57:22;0.00;0.00;0.62;0.00;0.00;0.62;4.20;2.57;;;21.90;20.10;;;;;;2258702;61;20378;-62
2024/03/18 06:59:48;0.00;0.00;0.62;0.00;0.00;0.62;5.37;2.60;;;21.90;20.10;;;;;;2259289;61;20374;-62
2024/03/18 07:02:14;0.00;0.00;0.62;0.00;0.00;0.62;4.23;2.80;;;21.90;20.10;;;;;;2258856;61;20372;-64
2024/03/18 07:04:40;0.00;0.00;0.62;0.00;0.00;0.62;3.67;2.13;;;21.90;20.10;;;;;;2259158;61;20858;-62
2024/03/18 07:07:06;0.00;0.00;0.62;0.00;0.00;0.62;3.40;2.20;;;21.90;20.10;;;;;;2258892;61;20368;-64
2024/03/18 07:09:33;0.00;0.00;0.62;0.00;0.00;0.62;3.30;2.90;;;21.90;20.10;;;;;;2259182;61;20350;-66
2024/03/18 07:11:59;0.00;0.00;0.62;0.00;0.00;0.62;4.73;2.30;;;21.90;20.10;;;;;;2258968;61;20783;-62
2024/03/18 07:14:26;0.00;0.00;0.62;0.00;0.00;0.62;4.67;3.13;;;21.90;20.10;;;;;;2260690;61;20377;-63
2024/03/18 07:16:52;0.00;0.00;0.62;0.00;0.00;0.62;3.50;2.70;;;21.90;20.10;;;;;;2262941;61;20381;-63
2024/03/18 07:19:18;0.00;0.00;0.62;0.00;0.00;0.62;5.57;3.53;;;21.90;20.10;;;;;;2263140;61;20353;-63
2024/03/18 07:21:45;0.00;0.00;0.62;0.00;0.00;0.62;4.73;2.73;;;21.90;20.10;;;;;;2263012;61;20772;-64
2024/03/18 07:24:11;0.00;0.00;0.62;0.00;0.00;0.62;4.13;2.83;;;21.90;20.10;;;;;;2262577;61;20364;-64
2024/03/18 07:26:37;0.00;0.00;0.62;0.00;0.00;0.62;4.07;2.70;;;21.90;20.10;;;;;;2262700;61;20392;-65
2024/03/18 07:29:03;0.00;0.00;0.62;0.00;0.00;0.62;4.60;2.70;;;21.90;20.10;;;;;;2263225;61;20364;-63
2024/03/18 07:31:30;0.00;0.00;0.62;0.00;0.00;0.62;4.73;3.30;;;21.90;20.10;;;;;;2263062;61;20356;-66
2024/03/18 07:33:57;0.00;0.00;0.62;0.00;0.00;0.62;6.70;3.60;;;21.90;20.60;;;;;;2263231;61;20939;-64
2024/03/18 07:36:23;0.00;0.00;0.62;0.00;0.00;0.62;5.10;3.20;;;21.90;20.10;;;;;;2263085;61;20380;-64
2024/03/18 07:38:49;0.00;0.00;0.62;0.00;0.00;0.62;6.17;3.53;;;21.90;20.10;;;;;;2262956;61;20395;-68
2024/03/18 07:41:15;0.00;0.00;0.62;0.00;0.00;0.62;6.03;3.30;;;21.90;20.10;;;;;;2262943;61;20444;-69
2024/03/18 07:43:44;0.00;0.00;0.62;0.00;0.00;0.62;5.17;2.93;;;21.80;20.00;;;;;;2263075;61;20388;-66
2024/03/18 07:46:10;0.00;0.00;0.62;0.00;0.00;0.62;4.80;3.40;;;21.80;20.00;;;;;;2262995;61;20377;-64
2024/03/18 07:48:37;0.00;0.00;0.62;0.00;0.00;0.62;4.57;3.60;;;21.80;20.00;;;;;;2263051;61;20889;-67
2024/03/18 07:51:08;0.00;0.00;0.62;0.00;0.00;0.62;4.30;3.00;;;21.90;20.10;;;;;;2263178;61;20391;-68
2024/03/18 07:53:34;0.00;0.00;0.62;0.00;0.00;0.62;4.03;3.17;;;21.80;20.00;;;;;;2262930;61;21007;-65
2024/03/18 07:56:00;0.00;0.00;0.62;0.00;0.00;0.62;5.17;3.60;;;21.80;20.00;;;;;;2262891;61;20389;-65
2024/03/18 07:58:27;0.00;0.00;0.62;0.00;0.00;0.62;6.03;3.57;;;21.80;20.00;;;;;;2263066;61;20452;-65
2024/03/18 08:00:55;0.00;0.00;0.62;0.00;0.00;0.62;6.10;3.97;;;21.80;20.00;;;;;;2261080;61;20884;-66
2024/03/18 08:03:21;0.00;0.00;0.62;0.00;0.00;0.62;4.50;3.53;;;21.80;20.50;;;;;;2258817;61;20441;-65
2024/03/18 08:05:49;0.00;0.00;0.62;0.00;0.00;0.62;4.73;3.70;;;21.80;20.00;;;;;;2258912;61;20374;-65
2024/03/18 08:08:15;0.00;0.00;0.62;0.00;0.00;0.62;5.37;3.83;;;21.80;20.00;;;;;;2258839;61;20394;-63
2024/03/18 08:10:42;0.00;0.00;0.62;0.00;0.00;0.62;5.30;3.47;;;21.80;20.00;;;;;;2258828;61;20358;-65
2024/03/18 08:13:08;0.00;0.00;0.62;0.00;0.00;0.62;6.07;3.73;;;21.80;20.00;;;;;;2254930;61;20781;-63
2024/03/18 08:15:34;0.00;0.00;0.62;0.00;0.00;0.62;4.30;3.43;;;21.80;20.00;;;;;;2258795;61;20397;-63
2024/03/18 08:18:01;0.00;0.00;0.62;0.00;0.00;0.62;4.13;3.20;;;21.80;20.00;;;;;;2258730;61;20835;-64
2024/03/18 08:20:27;0.00;0.00;0.62;0.00;0.00;0.62;5.67;3.80;;;21.80;20.00;;;;;;2258950;61;20354;-64
2024/03/18 08:22:54;0.00;0.00;0.62;0.00;0.00;0.62;3.70;2.90;;;21.80;20.00;;;;;;2258904;61;20350;-64
2024/03/18 08:25:21;0.00;0.00;0.62;0.00;0.00;0.62;6.90;4.70;;;21.80;20.00;;;;;;2258957;61;20488;-65
2024/03/18 08:27:47;0.00;0.00;0.62;0.00;0.00;0.62;4.13;3.00;;;21.80;20.00;;;;;;2258675;61;20457;-64
2024/03/18 08:30:14;0.00;0.00;0.62;0.00;0.00;0.62;7.27;3.90;;;21.80;20.00;;;;;;2258902;61;20769;-64
2024/03/18 08:32:40;0.00;0.00;0.62;0.00;0.00;0.62;4.70;3.90;;;21.80;20.00;;;;;;2262883;61;20435;-64
2024/03/18 08:35:07;0.00;0.00;0.62;0.00;0.00;0.62;5.17;3.80;;;21.80;20.00;;;;;;2262722;61;20418;-65
2024/03/18 08:37:33;0.00;0.00;0.62;0.00;0.00;0.62;4.87;3.50;;;21.80;20.00;;;;;;2262604;61;20445;-65
2024/03/18 08:40:01;0.00;0.00;0.62;0.00;0.00;0.62;6.03;4.00;;;21.80;20.00;;;;;;2262909;61;20351;-64
2024/03/18 08:42:27;0.00;0.00;0.62;0.00;0.00;0.62;5.67;3.40;;;21.80;20.00;;;;;;2262808;61;20453;-64
2024/03/18 08:44:53;0.00;0.00;0.62;0.00;0.00;0.62;4.90;3.53;;;21.80;20.00;;;;;;2262771;61;20549;-63
2024/03/18 08:47:20;0.00;0.00;0.62;0.00;0.00;0.62;4.90;3.40;;;21.80;20.00;;;;;;2262828;61;20442;-63
2024/03/18 08:49:47;0.00;0.00;0.62;0.00;0.00;0.62;4.27;3.60;;;21.80;20.00;;;;;;2262457;61;20515;-64
2024/03/18 08:52:13;0.00;0.00;0.62;0.00;0.00;0.62;4.10;2.83;;;21.80;20.00;;;;;;2262502;61;20418;-68
2024/03/18 08:54:39;0.00;0.00;0.62;0.00;0.00;0.62;4.67;3.30;;;21.80;20.00;;;;;;2262921;61;20388;-67
2024/03/18 08:57:07;0.00;0.00;0.62;0.00;0.00;0.62;4.80;3.50;;;21.80;20.00;;;;;;2262600;61;20455;-68
2024/03/18 08:59:34;0.00;0.00;0.62;0.00;0.00;0.62;5.53;2.90;;;21.80;20.00;;;;;;2262673;61;20422;-68
2024/03/18 09:02:00;0.00;0.00;0.62;0.00;0.00;0.62;5.43;3.23;;;21.80;20.00;;;;;;2262419;61;20392;-66
2024/03/18 09:04:27;0.00;0.00;0.62;0.00;0.00;0.62;3.53;2.77;;;21.80;20.00;;;;;;2262634;61;20350;-66
2024/03/18 09:06:53;0.00;0.00;0.62;0.00;0.00;0.62;4.60;3.23;;;21.80;20.00;;;;;;2258761;61;20380;-64
2024/03/18 09:09:20;0.00;0.00;0.62;0.00;0.00;0.62;4.03;3.00;;;21.80;20.00;;;;;;2262991;61;20349;-68
2024/03/18 09:11:47;0.00;0.00;0.62;0.00;0.00;0.62;5.73;2.90;;;21.80;20.60;;;;;;2258919;61;20353;-63
2024/03/18 09:14:14;0.00;0.00;0.62;0.00;0.00;0.62;4.70;4.00;;;21.80;20.00;;;;;;2262680;61;20422;-66
2024/03/18 09:16:40;0.00;0.00;0.62;0.00;0.00;0.62;4.47;3.30;;;21.80;20.00;;;;;;2262464;61;20463;-64
2024/03/18 09:19:07;0.00;0.00;0.62;0.00;0.00;0.62;5.37;3.40;;;21.80;20.00;;;;;;2262799;61;20353;-65
2024/03/18 09:21:33;0.00;0.00;0.62;0.00;0.00;0.62;6.53;4.33;;;21.80;20.00;;;;;;2263317;61;20854;-66
2024/03/18 09:24:00;0.00;0.00;0.62;0.00;0.00;0.62;5.23;3.57;;;21.80;20.00;;;;;;2263540;61;20392;-64
2024/03/18 09:26:26;0.00;0.00;0.62;0.00;0.00;0.62;4.17;3.23;;;21.80;20.50;;;;;;2263205;61;20963;-66
2024/03/18 09:28:53;0.00;0.00;0.62;0.00;0.00;0.62;4.60;3.70;;;21.80;20.00;;;;;;2263247;61;20889;-65
2024/03/18 09:31:21;0.00;0.00;0.62;0.00;0.00;0.62;4.73;3.87;;;21.80;20.10;;;;;;2263209;61;20444;-65
2024/03/18 09:33:47;0.00;0.00;0.62;0.00;0.00;0.62;5.23;4.07;;;21.80;20.10;;;;;;2263536;61;20738;-68
2024/03/18 09:36:14;0.00;0.00;0.62;0.00;0.00;0.62;5.50;4.20;;;21.80;20.10;;;;;;2263469;61;20558;-64
2024/03/18 09:38:40;0.00;0.00;0.62;0.00;0.00;0.62;6.60;5.30;;;21.80;20.10;;;;;;2263361;61;20353;-68
2024/03/18 09:41:07;0.00;0.00;0.62;0.00;0.00;0.62;7.57;5.10;;;21.80;20.10;;;;;;2263672;61;20349;-66
2024/03/18 09:43:34;0.00;0.00;0.62;0.00;0.00;0.62;8.67;6.27;;;21.80;20.20;;;;;;2263675;61;20352;-65